Time;durP1;ratioP1;P1;durP2;ratioP2;P2;SDS_P1;SDS_P2;PMS_P1;PMS_P2;Temp;Humidity;BMP_temperature;BMP_pressure;BME280_temperature;BME280_humidity;BME280_pressure;Samples;Min_cycle;Max_cycle;Signal;HPM_P1;HPM_P2
2022/04/11 00:01:10;;;;;;;19.30;11.02;;;3.50;99.90;;;;;;5071435;28;20119;-58
2022/04/11 00:03:40;;;;;;;23.05;9.55;;;3.30;99.90;;;;;;5071169;28;20128;-58
2022/04/11 00:06:07;;;;;;;;;;;3.20;99.90;;;;;;5072139;28;20063;-58
2022/04/11 00:08:33;;;;;;;13.32;7.78;;;3.30;99.90;;;;;;5071207;28;20282;-58
2022/04/11 00:11:04;;;;;;;15.23;8.10;;;3.20;99.90;;;;;;5073549;28;20033;-58
2022/04/11 00:13:38;;;;;;;16.33;8.27;;;3.20;99.90;;;;;;5075046;28;20044;-58
2022/04/11 00:16:07;;;;;;;14.25;8.85;;;3.20;99.90;;;;;;5074828;28;20453;-59
2022/04/11 00:18:38;;;;;;;13.85;7.28;;;3.20;99.90;;;;;;5074797;28;20398;-58
2022/04/11 00:21:06;;;;;;;9.07;6.00;;;3.20;99.90;;;;;;5075255;28;20079;-58
2022/04/11 00:23:33;;;;;;;10.10;4.80;;;3.30;99.90;;;;;;5075004;28;20133;-58
2022/04/11 00:26:01;;;;;;;9.60;5.28;;;3.20;99.90;;;;;;5075230;28;20041;-58
2022/04/11 00:28:34;;;;;;;12.98;5.47;;;3.10;99.90;;;;;;5074873;28;20041;-58
2022/04/11 00:31:06;;;;;;;14.05;6.55;;;3.20;99.90;;;;;;5074879;28;20040;-58
2022/04/11 00:33:38;;;;;;;16.90;10.57;;;3.10;99.90;;;;;;5074629;28;20129;-58
2022/04/11 00:36:08;;;;;;;19.45;10.40;;;3.00;99.90;;;;;;5073042;28;20057;-58
2022/04/11 00:38:40;;;;;;;14.18;9.80;;;3.00;99.90;;;;;;5074777;28;20029;-58
2022/04/11 00:41:08;;;;;;;17.58;9.32;;;3.00;99.90;;;;;;5106299;28;20094;-58
2022/04/11 00:43:39;;;;;;;13.68;8.15;;;2.90;99.90;;;;;;5074696;28;20101;-58
2022/04/11 00:46:15;;;;;;;17.63;8.88;;;2.80;99.90;;;;;;5075239;28;20044;-59
2022/04/11 00:48:43;;;;;;;13.82;7.68;;;2.70;99.90;;;;;;5074510;28;20055;-58
2022/04/11 00:51:21;;;;;;;10.85;6.43;;;2.60;99.90;;;;;;5074520;28;20560;-58
2022/04/11 00:53:57;;;;;;;9.93;6.03;;;2.70;99.90;;;;;;5074423;28;20545;-58
2022/04/11 00:56:31;;;;;;;8.75;4.75;;;2.80;99.90;;;;;;5074542;28;20043;-58
2022/04/11 00:59:02;;;;;;;11.55;5.22;;;2.70;99.90;;;;;;5074564;28;20455;-58
2022/04/11 01:01:33;;;;;;;6.78;4.57;;;2.70;99.90;;;;;;5074693;28;20044;-58
2022/04/11 01:04:04;;;;;;;10.10;3.60;;;2.70;99.90;;;;;;5074456;28;20590;-58
2022/04/11 01:06:36;;;;;;;5.45;3.42;;;2.60;99.90;;;;;;5074390;28;20040;-58
2022/04/11 01:09:03;;;;;;;6.63;3.35;;;2.60;99.90;;;;;;5074412;28;20119;-58
2022/04/11 01:11:36;;;;;;;5.25;3.40;;;2.50;99.90;;;;;;5073929;28;20091;-58
2022/04/11 01:14:07;;;;;;;8.05;3.58;;;2.40;99.90;;;;;;5074072;28;20036;-58
2022/04/11 01:16:35;;;;;;;6.30;3.30;;;2.40;99.90;;;;;;5073810;28;20471;-58
2022/04/11 01:19:02;;;;;;;8.48;4.45;;;2.40;99.90;;;;;;5073621;28;20781;-58
2022/04/11 01:21:36;;;;;;;16.65;6.57;;;2.30;99.90;;;;;;5074099;28;20054;-58
2022/04/11 01:24:02;;;;;;;12.75;6.38;;;2.30;99.90;;;;;;5074046;28;20048;-58
2022/04/11 01:26:31;;;;;;;23.13;9.90;;;2.20;99.90;;;;;;5073799;28;20044;-58
2022/04/11 01:29:01;;;;;;;16.38;7.70;;;2.20;99.90;;;;;;5073417;28;20483;-59
2022/04/11 01:31:34;;;;;;;23.40;8.93;;;2.20;99.90;;;;;;5073522;28;20044;-58
2022/04/11 01:34:06;;;;;;;25.77;10.20;;;2.20;99.90;;;;;;5072160;28;20121;-58
2022/04/11 01:36:36;;;;;;;23.98;8.43;;;2.20;99.90;;;;;;5073275;28;20550;-58
2022/04/11 01:39:08;;;;;;;25.35;8.95;;;2.10;99.90;;;;;;5073519;28;20123;-58
2022/04/11 01:41:37;;;;;;;17.70;7.57;;;2.30;99.90;;;;;;5073435;28;20040;-58
2022/04/11 01:44:05;;;;;;;13.43;5.97;;;2.30;99.90;;;;;;5073191;28;20434;-58
2022/04/11 01:46:35;;;;;;;13.15;6.63;;;2.30;99.90;;;;;;5073233;28;20048;-58
2022/04/11 01:49:06;;;;;;;11.30;5.78;;;2.30;99.90;;;;;;5073213;28;20158;-58
2022/04/11 01:51:36;;;;;;;12.85;5.07;;;2.20;99.90;;;;;;5073364;28;20044;-58
2022/04/11 01:54:07;;;;;;;9.07;4.50;;;2.20;99.90;;;;;;5073148;28;20041;-58
2022/04/11 01:56:40;;;;;;;11.00;5.25;;;2.30;99.90;;;;;;5072340;28;20411;-58
2022/04/11 01:59:13;;;;;;;10.95;4.15;;;2.30;99.90;;;;;;5072720;28;20079;-58
2022/04/11 02:01:42;;;;;;;11.18;4.97;;;2.30;99.90;;;;;;5073080;28;20048;-58
2022/04/11 02:04:14;;;;;;;12.10;6.22;;;2.20;99.90;;;;;;5073038;28;20040;-58
2022/04/11 02:06:42;;;;;;;14.55;5.97;;;2.20;99.90;;;;;;5073193;28;20052;-58
2022/04/11 02:09:09;;;;;;;13.00;6.75;;;2.30;99.90;;;;;;5072952;28;20101;-58
2022/04/11 02:11:35;;;;;;;15.25;5.57;;;2.10;99.90;;;;;;5072562;28;20051;-58
2022/04/11 02:14:01;;;;;;;12.57;5.40;;;2.20;99.90;;;;;;5072798;28;20127;-59
2022/04/11 02:16:29;;;;;;;6.55;3.40;;;2.20;99.90;;;;;;5073336;28;20143;-58
2022/04/11 02:18:59;;;;;;;8.45;4.10;;;2.20;99.90;;;;;;5072774;28;20120;-58
2022/04/11 02:21:31;;;;;;;8.70;3.88;;;2.20;99.90;;;;;;5072929;28;20496;-58
2022/04/11 02:23:57;;;;;;;9.25;3.63;;;2.20;99.90;;;;;;5072941;28;20097;-58
2022/04/11 02:26:26;;;;;;;9.60;4.22;;;2.30;99.90;;;;;;5072443;28;20036;-58
2022/04/11 02:29:01;;;;;;;12.55;4.35;;;2.20;99.90;;;;;;5073011;28;20037;-58
2022/04/11 02:31:32;;;;;;;9.30;4.35;;;2.20;99.90;;;;;;5072772;28;20040;-58
2022/04/11 02:34:01;;;;;;;9.63;4.13;;;2.10;99.90;;;;;;5072094;28;20418;-58
2022/04/11 02:36:32;;;;;;;7.22;3.50;;;2.00;99.90;;;;;;5072282;28;20088;-59
2022/04/11 02:39:01;;;;;;;6.72;3.53;;;2.00;99.90;;;;;;5072680;28;20111;-58
2022/04/11 02:41:32;;;;;;;8.13;3.35;;;1.90;99.90;;;;;;5072274;28;20097;-59
2022/04/11 02:44:00;;;;;;;8.32;3.38;;;1.90;99.90;;;;;;5072325;28;20474;-58
2022/04/11 02:46:30;;;;;;;8.40;3.27;;;1.90;99.90;;;;;;5072278;28;20090;-58
2022/04/11 02:49:02;;;;;;;10.15;2.50;;;1.90;99.90;;;;;;5054702;28;20344;-60
2022/04/11 02:51:36;;;;;;;4.60;2.58;;;1.90;99.90;;;;;;5104616;28;20036;-60
2022/04/11 02:54:07;;;;;;;9.55;3.15;;;1.90;99.90;;;;;;5072184;28;20094;-59
2022/04/11 02:56:37;;;;;;;5.35;2.42;;;1.80;99.90;;;;;;5072325;28;20037;-59
2022/04/11 02:59:03;;;;;;;7.18;2.88;;;1.90;99.90;;;;;;5071837;28;20045;-58
2022/04/11 03:01:35;;;;;;;5.78;2.70;;;1.90;99.90;;;;;;5071946;28;20036;-59
2022/04/11 03:04:04;;;;;;;7.38;2.63;;;1.80;99.90;;;;;;5072271;28;20041;-59
2022/04/11 03:06:34;;;;;;;7.00;2.70;;;1.90;99.90;;;;;;5071765;28;20106;-59
2022/04/11 03:09:03;;;;;;;5.93;2.53;;;1.90;99.90;;;;;;5071988;28;20052;-59
2022/04/11 03:11:38;;;;;;;4.35;2.42;;;1.90;99.90;;;;;;5071676;28;20479;-59
2022/04/11 03:14:10;;;;;;;5.35;2.47;;;1.90;99.90;;;;;;5072165;28;20049;-59
2022/04/11 03:16:46;;;;;;;7.88;3.17;;;1.90;99.90;;;;;;5072021;28;20124;-59
2022/04/11 03:19:12;;;;;;;9.38;5.15;;;1.80;99.90;;;;;;5071851;28;20083;-59
2022/04/11 03:21:47;;;;;;;8.93;4.25;;;1.90;99.90;;;;;;5071743;28;20040;-60
2022/04/11 03:24:17;;;;;;;8.05;5.28;;;2.00;99.90;;;;;;5071860;28;20052;-59
2022/04/11 03:26:50;;;;;;;7.40;4.40;;;1.90;99.90;;;;;;5072423;28;20095;-58
2022/04/11 03:29:21;;;;;;;8.15;5.07;;;1.80;99.90;;;;;;5071918;28;20120;-59
2022/04/11 03:31:53;;;;;;;14.73;6.13;;;1.80;99.90;;;;;;5069944;28;20052;-62
2022/04/11 03:34:27;;;;;;;12.38;6.20;;;1.80;99.90;;;;;;5072106;28;20097;-62
2022/04/11 03:36:56;;;;;;;8.93;5.15;;;2.00;99.90;;;;;;5071186;28;20395;-62
2022/04/11 03:39:32;;;;;;;10.95;5.65;;;2.00;99.90;;;;;;5071914;28;20040;-63
2022/04/11 03:42:03;;;;;;;10.80;6.63;;;2.10;99.90;;;;;;5071715;28;20116;-62
2022/04/11 03:44:35;;;;;;;9.73;5.85;;;2.10;99.90;;;;;;5071498;28;20083;-63
2022/04/11 03:47:05;;;;;;;7.25;5.45;;;2.10;99.90;;;;;;5073528;28;20673;-62
2022/04/11 03:49:35;;;;;;;7.55;5.65;;;2.10;99.90;;;;;;5075360;28;20040;-62
2022/04/11 03:52:04;;;;;;;5.57;4.70;;;2.20;99.90;;;;;;5075503;28;20036;-64
2022/04/11 03:54:37;;;;;;;7.63;4.50;;;2.20;99.90;;;;;;5075529;28;20036;-62
2022/04/11 03:57:05;;;;;;;7.90;3.72;;;2.20;99.90;;;;;;5075517;28;20255;-62
2022/04/11 03:59:38;;;;;;;4.97;3.47;;;2.20;99.90;;;;;;5075339;28;20115;-62
2022/04/11 04:02:10;;;;;;;4.95;3.00;;;2.30;99.90;;;;;;5107384;28;20505;-62
2022/04/11 04:04:39;;;;;;;5.35;2.95;;;2.30;99.90;;;;;;5074347;28;20127;-62
2022/04/11 04:07:09;;;;;;;4.88;3.30;;;2.30;99.90;;;;;;5075372;28;20123;-63
2022/04/11 04:09:43;;;;;;;10.02;3.80;;;2.40;99.90;;;;;;5075077;28;20128;-62
2022/04/11 04:12:18;;;;;;;10.35;3.63;;;2.40;99.90;;;;;;5074983;28;20098;-63
2022/04/11 04:14:51;;;;;;;10.07;3.50;;;2.40;99.90;;;;;;5075052;28;20119;-62
2022/04/11 04:17:23;;;;;;;5.30;2.83;;;2.50;99.90;;;;;;5075199;28;20499;-63
2022/04/11 04:19:54;;;;;;;6.03;2.78;;;2.50;99.90;;;;;;5074952;28;20043;-63
2022/04/11 04:22:27;;;;;;;9.60;3.35;;;2.60;99.90;;;;;;5073935;28;20511;-62
2022/04/11 04:24:57;;;;;;;5.47;2.67;;;2.70;99.90;;;;;;5074967;28;20041;-62
2022/04/11 04:27:28;;;;;;;5.70;2.97;;;2.60;99.90;;;;;;5074825;28;20056;-62
2022/04/11 04:30:02;;;;;;;4.97;2.85;;;2.70;99.90;;;;;;5074692;28;20115;-62
2022/04/11 04:32:31;;;;;;;7.65;3.20;;;2.80;99.90;;;;;;5074939;28;20382;-62
2022/04/11 04:35:05;;;;;;;8.32;3.28;;;2.70;99.90;;;;;;5074634;28;20150;-62
2022/04/11 04:37:38;;;;;;;9.50;3.10;;;2.80;99.90;;;;;;5075001;28;20037;-62
2022/04/11 04:40:12;;;;;;;5.45;2.90;;;2.80;99.90;;;;;;5074926;28;20044;-62
2022/04/11 04:42:40;;;;;;;4.10;2.92;;;2.90;99.90;;;;;;5074700;28;20111;-62
2022/04/11 04:45:09;;;;;;;6.45;2.83;;;2.90;99.90;;;;;;5074651;28;20094;-62
2022/04/11 04:47:35;;;;;;;5.47;3.08;;;3.00;99.90;;;;;;5074521;28;20127;-62
2022/04/11 04:50:02;;;;;;;8.05;3.38;;;3.00;99.90;;;;;;5074530;28;20052;-62
2022/04/11 04:52:28;;;;;;;7.03;3.25;;;3.00;99.90;;;;;;5074501;28;20098;-62
2022/04/11 04:54:55;;;;;;;4.55;2.72;;;3.10;99.90;;;;;;5074698;28;20089;-62
2022/04/11 04:57:24;;;;;;;6.53;3.10;;;3.10;99.90;;;;;;5073628;28;20467;-62
2022/04/11 04:59:56;;;;;;;5.43;3.13;;;3.10;99.90;;;;;;5074448;28;20040;-62
2022/04/11 05:02:29;;;;;;;9.88;3.10;;;3.20;99.90;;;;;;5074263;28;20040;-62
2022/04/11 05:05:08;;;;;;;8.50;3.50;;;3.30;99.90;;;;;;5074177;28;20040;-62
2022/04/11 05:07:40;;;;;;;5.43;2.97;;;3.30;99.90;;;;;;5074251;28;20045;-62
2022/04/11 05:10:11;;;;;;;7.75;3.03;;;3.30;99.90;;;;;;5074450;28;20106;-62
2022/04/11 05:12:41;;;;;;;6.00;3.50;;;3.30;99.90;;;;;;5074318;28;20386;-62
2022/04/11 05:15:09;;;;;;;7.32;3.58;;;3.30;99.90;;;;;;5074202;28;20448;-62
2022/04/11 05:17:40;;;;;;;5.72;3.60;;;3.40;99.90;;;;;;5073008;28;20135;-62
2022/04/11 05:20:12;;;;;;;7.00;3.40;;;3.40;99.90;;;;;;5074029;28;20036;-62
2022/04/11 05:22:42;;;;;;;8.88;4.03;;;3.40;99.90;;;;;;5074027;28;20048;-62
2022/04/11 05:25:12;;;;;;;9.13;4.13;;;3.50;99.90;;;;;;5073701;28;20092;-62
2022/04/11 05:27:42;;;;;;;9.85;4.82;;;3.60;99.90;;;;;;5074057;28;20066;-62
2022/04/11 05:30:11;;;;;;;10.35;4.53;;;3.60;99.90;;;;;;5073665;28;20040;-62
2022/04/11 05:32:43;;;;;;;6.25;4.90;;;3.70;99.90;;;;;;5105473;28;20048;-62
2022/04/11 05:35:11;;;;;;;8.35;4.35;;;3.70;99.90;;;;;;5072648;28;20060;-62
2022/04/11 05:37:42;;;;;;;8.80;4.28;;;3.80;99.90;;;;;;5073689;28;20045;-62
2022/04/11 05:40:14;;;;;;;6.07;4.03;;;3.80;99.90;;;;;;5073875;28;20932;-62
2022/04/11 05:42:43;;;;;;;11.05;4.20;;;3.80;99.90;;;;;;5073743;28;20094;-62
2022/04/11 05:45:12;;;;;;;13.05;4.00;;;3.80;99.90;;;;;;5072036;28;20049;-62
2022/04/11 05:47:43;;;;;;;6.43;3.58;;;3.90;99.90;;;;;;5073275;28;20098;-62
2022/04/11 05:50:12;;;;;;;7.63;4.03;;;4.00;99.90;;;;;;5073502;28;20537;-62
2022/04/11 05:52:46;;;;;;;7.85;4.47;;;4.00;99.90;;;;;;5073308;28;20076;-63
2022/04/11 05:55:16;;;;;;;7.32;3.72;;;4.10;99.90;;;;;;5073157;28;20036;-62
2022/04/11 05:57:51;;;;;;;10.80;3.55;;;4.10;99.90;;;;;;5073064;28;20041;-62
2022/04/11 06:00:21;;;;;;;7.43;3.25;;;4.10;99.90;;;;;;5072974;28;20064;-62
2022/04/11 06:02:57;;;;;;;5.93;3.33;;;4.20;99.90;;;;;;5071982;28;20120;-62
2022/04/11 06:05:28;;;;;;;5.53;3.40;;;4.20;99.90;;;;;;5072915;28;20191;-62
2022/04/11 06:07:55;;;;;;;;;;;4.20;99.90;;;;;;5073489;28;20045;-62
2022/04/11 06:10:21;;;;;;;9.07;3.10;;;4.30;99.90;;;;;;5072741;28;19917;-62
2022/04/11 06:12:47;;;;;;;7.15;3.50;;;4.40;99.90;;;;;;5072600;28;20509;-59
2022/04/11 06:15:17;;;;;;;7.32;2.92;;;4.50;99.90;;;;;;5072744;28;20441;-59
2022/04/11 06:17:47;;;;;;;5.18;2.63;;;4.50;99.90;;;;;;5072484;28;20040;-59
2022/04/11 06:20:14;;;;;;;5.35;3.17;;;4.50;99.90;;;;;;5072895;28;20101;-59
2022/04/11 06:22:48;;;;;;;7.43;3.30;;;4.60;99.90;;;;;;5071280;28;20052;-59
2022/04/11 06:25:17;;;;;;;3.55;2.53;;;4.60;99.90;;;;;;5072843;28;20032;-59
2022/04/11 06:27:48;;;;;;;5.13;2.60;;;4.70;99.90;;;;;;5072681;28;20665;-59
2022/04/11 06:30:19;;;;;;;5.47;3.00;;;4.70;99.90;;;;;;5072293;28;20032;-59
2022/04/11 06:32:49;;;;;;;5.20;2.90;;;4.80;99.90;;;;;;5072202;28;20123;-59
2022/04/11 06:35:17;;;;;;;6.05;3.03;;;4.80;99.90;;;;;;5072312;28;20048;-59
2022/04/11 06:37:49;;;;;;;6.75;2.65;;;4.90;99.90;;;;;;5072348;28;20041;-58
2022/04/11 06:40:19;;;;;;;5.20;2.47;;;4.90;99.90;;;;;;5072399;28;20116;-59
2022/04/11 06:42:49;;;;;;;3.97;2.70;;;5.00;99.90;;;;;;5072416;28;20127;-58
2022/04/11 06:45:17;;;;;;;4.50;2.20;;;5.00;99.90;;;;;;5072406;28;20118;-59
2022/04/11 06:47:46;;;;;;;5.10;2.65;;;5.10;99.90;;;;;;5072321;28;20413;-59
2022/04/11 06:50:14;;;;;;;7.43;2.90;;;5.20;99.90;;;;;;5104361;28;20600;-58
2022/04/11 06:52:42;;;;;;;7.13;2.72;;;5.30;99.90;;;;;;5071962;28;20045;-58
2022/04/11 06:55:09;;;;;;;10.05;3.30;;;5.40;99.90;;;;;;5072107;28;20037;-59
2022/04/11 06:57:36;;;;;;;10.80;3.35;;;5.50;99.90;;;;;;5071845;28;20043;-59
2022/04/11 07:00:10;;;;;;;6.63;2.83;;;5.60;99.90;;;;;;5072076;28;20048;-58
2022/04/11 07:02:43;;;;;;;10.23;3.15;;;5.70;99.90;;;;;;5071990;28;20372;-59
2022/04/11 07:05:09;;;;;;;7.65;3.50;;;5.80;99.90;;;;;;5072089;28;20056;-58
2022/04/11 07:07:42;;;;;;;5.30;3.20;;;5.90;99.90;;;;;;5072003;28;20047;-59
2022/04/11 07:10:12;;;;;;;7.20;2.80;;;6.00;99.90;;;;;;5072027;28;20040;-59
2022/04/11 07:12:40;;;;;;;7.55;2.90;;;6.20;99.90;;;;;;5071809;28;20040;-59
2022/04/11 07:15:09;;;;;;;7.22;3.15;;;6.30;99.90;;;;;;5073057;28;20036;-59
2022/04/11 07:17:36;;;;;;;5.70;2.58;;;6.30;99.90;;;;;;5106580;28;20499;-59
2022/04/11 07:20:03;;;;;;;6.05;2.63;;;6.40;99.90;;;;;;5071663;28;20047;-59
2022/04/11 07:22:37;;;;;;;6.68;2.42;;;6.50;99.90;;;;;;5071698;28;20499;-59
2022/04/11 07:25:05;;;;;;;4.97;2.25;;;6.70;99.90;;;;;;5071793;28;20371;-60
2022/04/11 07:27:33;;;;;;;7.85;2.10;;;6.70;99.90;;;;;;5071321;28;20115;-59
2022/04/11 07:30:00;;;;;;;8.38;2.20;;;6.80;99.90;;;;;;5071562;28;20114;-59
2022/04/11 07:32:28;;;;;;;5.53;2.20;;;7.00;99.90;;;;;;5071368;28;20123;-58
2022/04/11 07:34:58;;;;;;;8.63;2.20;;;7.00;99.90;;;;;;5071776;28;20041;-59
2022/04/11 07:37:27;;;;;;;7.65;1.92;;;7.20;99.90;;;;;;5072426;28;20461;-59
2022/04/11 07:39:59;;;;;;;7.43;1.85;;;7.20;99.90;;;;;;5071480;28;20040;-59
2022/04/11 07:42:25;;;;;;;5.95;2.08;;;7.20;99.90;;;;;;5071539;28;20052;-59
2022/04/11 07:44:52;;;;;;;6.93;2.28;;;7.30;99.90;;;;;;5071052;28;20044;-58
2022/04/11 07:47:18;;;;;;;2.95;1.48;;;7.40;99.90;;;;;;5071442;28;20389;-59
2022/04/11 07:49:46;;;;;;;7.18;1.90;;;7.60;99.90;;;;;;5071593;28;20043;-58
2022/04/11 07:52:19;;;;;;;8.50;3.05;;;7.70;99.90;;;;;;5069971;28;20494;-58
2022/04/11 07:54:46;;;;;;;3.40;1.48;;;7.80;99.90;;;;;;5103883;28;20402;-58
2022/04/11 07:57:14;;;;;;;6.20;2.33;;;7.90;99.90;;;;;;5087414;28;20049;-58
2022/04/11 07:59:42;;;;;;;6.10;1.73;;;8.00;99.90;;;;;;5103517;28;20497;-58
2022/04/11 08:02:11;;;;;;;4.18;1.80;;;8.10;99.90;;;;;;5071403;28;20049;-58
2022/04/11 08:04:39;;;;;;;7.82;2.72;;;8.20;99.90;;;;;;5070110;28;20124;-59
2022/04/11 08:07:05;;;;;;;2.45;1.33;;;8.30;99.90;;;;;;5071986;28;20056;-58
2022/04/11 08:09:35;;;;;;;4.35;1.80;;;8.50;99.90;;;;;;5071113;28;20048;-59
2022/04/11 08:12:04;;;;;;;3.83;1.40;;;8.70;99.90;;;;;;5071856;28;20056;-58
2022/04/11 08:14:31;;;;;;;3.50;1.60;;;8.80;99.90;;;;;;5071453;28;20127;-58
2022/04/11 08:17:03;;;;;;;6.60;1.92;;;9.00;99.90;;;;;;5071366;28;20281;-59
2022/04/11 08:19:33;;;;;;;6.95;1.75;;;9.20;99.90;;;;;;5070005;28;20032;-58
2022/04/11 08:22:02;;;;;;;4.40;1.38;;;9.30;99.90;;;;;;5070929;28;20491;-59
2022/04/11 08:24:32;;;;;;;9.57;2.07;;;9.50;99.90;;;;;;5071085;28;20111;-59
2022/04/11 08:26:59;;;;;;;6.25;1.60;;;9.70;99.90;;;;;;5071119;28;20483;-59
2022/04/11 08:29:28;;;;;;;5.05;2.22;;;10.00;99.90;;;;;;5070952;28;20089;-60
2022/04/11 08:31:58;;;;;;;8.02;1.88;;;10.20;99.90;;;;;;5088682;28;20052;-59
2022/04/11 08:34:24;;;;;;;7.22;1.90;;;10.40;99.90;;;;;;5074582;28;20036;-60
2022/04/11 08:36:52;;;;;;;8.57;2.00;;;10.50;99.90;;;;;;5056258;28;20505;-59
2022/04/11 08:39:22;;;;;;;5.47;1.95;;;10.60;99.90;;;;;;5074968;28;20049;-59
2022/04/11 08:41:49;;;;;;;8.68;2.03;;;10.80;99.90;;;;;;5074768;28;20055;-59
2022/04/11 08:44:15;;;;;;;4.93;2.20;;;11.10;99.90;;;;;;5056854;28;20060;-59
2022/04/11 08:46:43;;;;;;;5.72;2.20;;;11.50;99.90;;;;;;5073611;28;20048;-59
2022/04/11 08:49:10;;;;;;;3.85;1.52;;;11.50;99.90;;;;;;5074553;28;20048;-59
2022/04/11 08:51:37;;;;;;;8.23;2.17;;;11.80;99.90;;;;;;5074321;28;20075;-59
2022/04/11 08:54:05;;;;;;;6.53;2.10;;;12.10;99.90;;;;;;5074520;28;20448;-59
2022/04/11 08:56:34;;;;;;;6.18;1.88;;;12.40;99.90;;;;;;5074240;28;20043;-59
2022/04/11 08:59:02;;;;;;;6.15;1.92;;;12.60;99.90;;;;;;5074321;28;20099;-59
2022/04/11 09:01:35;;;;;;;;;;;12.90;99.90;;;;;;5074583;28;20550;-59
2022/04/11 09:04:00;;;;;;;4.25;1.65;;;13.00;99.90;;;;;;5074106;28;19968;-59
2022/04/11 09:06:33;;;;;;;5.30;1.73;;;13.00;99.90;;;;;;5106625;28;20087;-59
2022/04/11 09:09:00;;;;;;;3.78;1.40;;;13.60;99.90;;;;;;5074275;28;20435;-58
2022/04/11 09:11:36;;;;;;;5.30;1.48;;;13.70;99.90;;;;;;5073924;28;20044;-58
2022/04/11 09:14:10;;;;;;;4.25;1.20;;;13.70;99.90;;;;;;5073675;28;20039;-58
2022/04/11 09:16:43;;;;;;;3.97;1.45;;;13.80;99.20;;;;;;5074588;28;20483;-58
2022/04/11 09:19:25;;;;;;;5.18;1.45;;;13.90;99.90;;;;;;5073955;28;20032;-59
2022/04/11 09:21:54;;;;;;;3.72;1.30;;;13.90;98.40;;;;;;5073966;28;20051;-58
2022/04/11 09:24:26;;;;;;;5.25;1.25;;;14.10;98.60;;;;;;5073583;28;20042;-58
2022/04/11 09:26:56;;;;;;;4.47;1.10;;;14.40;98.80;;;;;;5073780;28;20437;-58
2022/04/11 09:29:23;;;;;;;2.85;1.25;;;14.80;98.60;;;;;;5073909;28;20406;-58
2022/04/11 09:32:02;;;;;;;2.88;1.35;;;14.70;97.00;;;;;;5073555;28;20051;-58
2022/04/11 09:34:30;;;;;;;2.75;1.23;;;15.20;95.70;;;;;;5073669;28;20119;-58
2022/04/11 09:37:02;;;;;;;4.53;1.33;;;15.30;97.30;;;;;;5072383;28;20498;-58
2022/04/11 09:39:38;;;;;;;4.50;1.38;;;15.30;96.70;;;;;;5073482;28;20048;-58
2022/04/11 09:42:16;;;;;;;3.08;1.17;;;15.30;96.50;;;;;;5073367;28;20119;-58
2022/04/11 09:44:48;;;;;;;6.32;1.10;;;15.40;96.10;;;;;;5073495;28;20055;-58
2022/04/11 09:47:19;;;;;;;3.80;1.40;;;15.50;94.00;;;;;;5073620;28;20059;-59
2022/04/11 09:49:51;;;;;;;4.40;1.17;;;15.40;95.20;;;;;;5073093;28;20037;-58
2022/04/11 09:52:20;;;;;;;4.78;1.30;;;15.70;96.50;;;;;;5073253;28;20455;-59
2022/04/11 09:54:53;;;;;;;3.20;1.20;;;15.50;95.70;;;;;;5073225;28;20072;-58
2022/04/11 09:57:27;;;;;;;7.78;2.10;;;15.40;94.80;;;;;;5073047;28;20044;-59
2022/04/11 09:59:54;;;;;;;7.95;1.50;;;15.30;94.70;;;;;;5072746;28;20142;-59
2022/04/11 10:02:23;;;;;;;4.88;1.30;;;15.40;95.10;;;;;;5073039;28;20048;-58
2022/04/11 10:04:54;;;;;;;5.53;1.50;;;15.60;94.60;;;;;;5073049;28;20053;-59
2022/04/11 10:07:22;;;;;;;4.40;1.20;;;15.50;94.40;;;;;;5072809;28;20141;-58
2022/04/11 10:09:52;;;;;;;;;;;15.60;94.40;;;;;;5073262;28;20043;-58
2022/04/11 10:12:21;;;;;;;3.42;1.08;;;15.80;93.80;;;;;;5072512;28;20385;-58
2022/04/11 10:14:51;;;;;;;5.55;1.23;;;15.90;93.30;;;;;;5072761;28;20040;-59
2022/04/11 10:17:20;;;;;;;;;;;15.90;91.30;;;;;;5073146;28;20107;-59
2022/04/11 10:19:50;;;;;;;2.73;1.33;;;15.70;90.30;;;;;;5073052;28;19920;-59
2022/04/11 10:22:26;;;;;;;5.00;1.55;;;15.70;88.20;;;;;;5072435;28;20048;-58
2022/04/11 10:25:20;;;;;;;4.15;1.55;;;15.80;92.20;;;;;;5072469;28;20037;-59
2022/04/11 10:28:15;;;;;;;3.70;1.20;;;15.80;93.00;;;;;;5071838;28;20574;-58
2022/04/11 10:31:01;;;;;;;3.70;1.50;;;16.10;92.20;;;;;;5072425;28;20040;-59
2022/04/11 10:34:01;;;;;;;3.13;1.20;;;15.80;90.40;;;;;;5071475;28;20384;-59
2022/04/11 10:36:37;;;;;;;3.22;1.40;;;15.80;90.70;;;;;;5069846;28;20049;-59
2022/04/11 10:39:18;;;;;;;3.03;1.70;;;15.90;91.70;;;;;;5070242;28;20048;-59
2022/04/11 10:41:57;;;;;;;3.25;1.52;;;16.00;91.60;;;;;;5068735;28;20048;-59
2022/04/11 10:44:49;;;;;;;7.43;1.70;;;16.20;91.20;;;;;;5069801;28;20048;-59
2022/04/11 10:47:15;;;;;;;3.55;1.83;;;15.90;92.10;;;;;;5069907;28;20137;-59
2022/04/11 10:49:50;;;;;;;3.00;1.52;;;16.20;90.90;;;;;;5069859;28;20125;-59
2022/04/11 10:52:30;;;;;;;3.60;1.70;;;16.40;92.20;;;;;;5069780;28;20056;-58
2022/04/11 10:55:18;;;;;;;5.75;1.70;;;16.30;91.70;;;;;;5069105;28;20048;-59
2022/04/11 10:57:47;;;;;;;5.97;1.90;;;16.20;91.80;;;;;;5069661;28;20033;-59
2022/04/11 11:00:25;;;;;;;4.35;1.75;;;16.10;92.50;;;;;;5069595;28;20052;-59
2022/04/11 11:03:00;;;;;;;3.72;1.88;;;16.20;92.00;;;;;;5069682;28;20046;-59
2022/04/11 11:05:35;;;;;;;3.67;1.75;;;16.20;92.30;;;;;;5069650;28;20060;-59
2022/04/11 11:08:09;;;;;;;4.40;1.65;;;16.20;91.70;;;;;;5069575;28;20055;-59
2022/04/11 11:10:45;;;;;;;3.13;1.40;;;16.30;92.10;;;;;;5069496;28;20082;-59
2022/04/11 11:13:30;;;;;;;4.50;1.85;;;16.30;91.20;;;;;;5071562;28;20567;-59
2022/04/11 11:16:01;;;;;;;4.55;1.77;;;16.30;90.30;;;;;;5104133;28;20036;-59
2022/04/11 11:18:51;;;;;;;6.97;2.20;;;16.40;91.20;;;;;;5071851;28;20033;-59
2022/04/11 11:21:56;;;;;;;5.97;2.20;;;16.60;91.90;;;;;;5071952;28;20044;-59
2022/04/11 11:24:23;;;;;;;5.68;2.05;;;16.60;92.10;;;;;;5069377;28;20048;-59
2022/04/11 11:26:54;;;;;;;2.92;1.98;;;16.60;91.20;;;;;;5052777;28;20047;-59
2022/04/11 11:29:26;;;;;;;4.15;1.77;;;16.50;90.80;;;;;;5069438;28;20051;-59
2022/04/11 11:32:07;;;;;;;7.63;3.67;;;16.70;91.60;;;;;;5069467;28;20704;-59
2022/04/11 11:34:36;;;;;;;7.28;3.95;;;16.70;91.70;;;;;;5069343;28;20080;-59
2022/04/11 11:37:15;;;;;;;5.18;2.17;;;16.80;91.60;;;;;;5068905;28;20058;-60
2022/04/11 11:39:45;;;;;;;4.35;2.22;;;16.40;91.30;;;;;;5069323;28;20041;-60
2022/04/11 11:42:19;;;;;;;5.43;2.70;;;16.20;90.90;;;;;;5069281;28;20055;-60
2022/04/11 11:44:49;;;;;;;4.93;2.00;;;16.10;90.60;;;;;;5069209;28;20041;-59
2022/04/11 11:47:33;;;;;;;4.68;2.30;;;16.10;92.50;;;;;;5069401;28;20040;-60
2022/04/11 11:50:12;;;;;;;4.50;2.30;;;16.40;92.80;;;;;;5069105;28;20449;-59
2022/04/11 11:52:58;;;;;;;4.80;2.45;;;16.50;91.10;;;;;;5068957;28;20064;-59
2022/04/11 11:55:39;;;;;;;5.07;2.20;;;16.40;91.30;;;;;;5069275;28;20033;-59
2022/04/11 11:58:13;;;;;;;6.22;2.67;;;16.70;91.40;;;;;;5069130;28;20111;-59
2022/04/11 12:01:03;;;;;;;5.07;2.60;;;16.60;91.90;;;;;;5070852;28;20562;-60
2022/04/11 12:06:43;;;;;;;6.22;2.55;;;16.90;91.10;;;;;;5071334;28;20040;-60
2022/04/11 12:09:19;;;;;;;4.75;2.30;;;17.00;91.90;;;;;;5074770;28;20384;-60
2022/04/11 12:12:01;;;;;;;4.22;2.63;;;17.10;92.50;;;;;;5074994;28;20080;-60
2022/04/11 12:14:54;;;;;;;5.45;2.33;;;17.30;91.00;;;;;;5075061;28;20516;-60
2022/04/11 12:17:50;;;;;;;9.43;3.08;;;17.50;91.80;;;;;;5074992;28;20566;-60
2022/04/11 12:20:33;;;;;;;7.95;3.28;;;17.50;91.50;;;;;;5074758;28;20078;-60
2022/04/11 12:23:21;;;;;;;7.13;2.30;;;17.50;91.60;;;;;;5074574;28;20094;-59
2022/04/11 12:26:04;;;;;;;5.18;2.33;;;17.80;91.20;;;;;;5074654;28;20040;-60
2022/04/11 12:28:48;;;;;;;2.92;2.10;;;17.60;91.40;;;;;;5074844;28;20045;-60
2022/04/11 12:31:28;;;;;;;6.43;2.47;;;17.70;90.60;;;;;;5074406;28;20044;-60
2022/04/11 12:34:15;;;;;;;4.78;2.38;;;17.80;91.50;;;;;;5074455;28;20033;-60
2022/04/11 12:37:10;;;;;;;4.25;2.55;;;17.60;90.30;;;;;;5105182;28;20044;-60
2022/04/11 12:40:04;;;;;;;4.47;2.25;;;17.70;89.70;;;;;;5074412;28;20036;-60
2022/04/11 12:42:36;;;;;;;4.63;2.22;;;17.40;90.30;;;;;;5074288;28;20072;-60
2022/04/11 12:45:15;;;;;;;6.05;2.65;;;17.80;91.10;;;;;;5074527;28;20128;-60
2022/04/11 12:48:09;;;;;;;4.35;2.38;;;17.40;88.90;;;;;;5073914;28;20055;-60
2022/04/11 12:50:41;;;;;;;3.80;2.40;;;17.60;91.10;;;;;;5074296;28;20395;-60
2022/04/11 12:53:14;;;;;;;5.05;2.88;;;17.70;90.50;;;;;;5081224;28;20294;-59
2022/04/11 12:55:43;;;;;;;5.00;2.28;;;17.70;91.30;;;;;;5094273;28;20036;-57
2022/04/11 12:58:11;;;;;;;4.43;2.00;;;17.40;90.40;;;;;;5094548;28;20044;-58
2022/04/11 13:00:54;;;;;;;4.30;2.38;;;18.60;88.40;;;;;;5094946;28;20048;-58
2022/04/11 13:03:24;;;;;;;6.07;2.63;;;19.10;88.60;;;;;;5094770;28;20036;-58
2022/04/11 13:05:57;;;;;;;4.80;2.20;;;19.50;88.90;;;;;;5094650;28;20044;-58
2022/04/11 13:08:33;;;;;;;6.35;2.60;;;20.10;86.80;;;;;;5094800;28;20394;-58
2022/04/11 13:11:07;;;;;;;4.15;2.38;;;20.00;86.00;;;;;;5092561;28;20044;-58
2022/04/11 13:13:41;;;;;;;4.88;2.35;;;20.10;84.00;;;;;;5094597;28;20035;-59
2022/04/11 13:19:09;;;;;;;6.30;1.95;;;20.00;85.50;;;;;;5094672;28;20153;-58
2022/04/11 13:21:44;;;;;;;5.38;2.30;;;20.00;82.70;;;;;;5094703;28;20039;-58
2022/04/11 13:24:19;;;;;;;4.88;2.58;;;19.90;84.20;;;;;;5093012;28;20047;-58